Time;durP1;ratioP1;P1;durP2;ratioP2;P2;SDS_P1;SDS_P2;PMS_P1;PMS_P2;Temp;Humidity;BMP_temperature;BMP_pressure;BME280_temperature;BME280_humidity;BME280_pressure;Samples;Min_cycle;Max_cycle;Signal;HPM_P1;HPM_P2
2021/05/25 00:04:56;;;;;;;0.55;0.55;;;;;;;10.39;87.46;100259.19;5046653;28;19921;-84
2021/05/25 00:11:50;;;;;;;3.47;0.80;;;;;;;10.20;87.67;100240.88;5066060;28;20048;-83
2021/05/25 00:22:57;;;;;;;2.53;0.63;;;;;;;10.42;86.28;100241.50;5060097;28;20048;-83
2021/05/25 00:25:31;;;;;;;0.75;0.70;;;;;;;10.16;86.29;100206.38;5034866;28;20048;-83
2021/05/25 00:28:05;;;;;;;0.85;0.70;;;;;;;10.37;86.96;100234.19;5047120;28;20397;-83
2021/05/25 00:30:38;;;;;;;0.73;0.60;;;;;;;10.35;86.84;100230.94;5055937;28;20060;-83
2021/05/25 00:33:11;;;;;;;0.98;0.80;;;;;;;10.41;85.62;100232.50;5060182;28;20067;-84
2021/05/25 00:35:44;;;;;;;1.30;0.70;;;;;;;10.38;86.04;100223.03;5058735;28;20402;-84
2021/05/25 00:38:17;;;;;;;0.98;0.65;;;;;;;10.35;85.11;100209.19;5070428;28;20056;-83
2021/05/25 00:40:49;;;;;;;0.82;0.60;;;;;;;10.46;84.84;100224.28;5038231;28;20064;-83
2021/05/25 00:43:23;;;;;;;1.58;0.60;;;;;;;10.40;84.78;100203.72;5036363;28;20505;-83
2021/05/25 00:45:56;;;;;;;1.05;0.75;;;;;;;10.30;85.48;100195.63;5060409;28;20048;-84
2021/05/25 00:48:23;;;;;;;;;;;;;;;10.43;85.48;100213.19;5041688;28;20053;-83
2021/05/25 00:50:56;;;;;;;1.92;0.70;;;;;;;10.40;85.34;100209.16;5057197;28;19925;-84
2021/05/25 00:53:30;;;;;;;0.73;0.60;;;;;;;10.13;85.40;100168.91;5073975;28;20040;-83
2021/05/25 00:56:03;;;;;;;2.58;0.60;;;;;;;10.35;85.98;100204.56;5074505;28;20041;-83
2021/05/25 01:02:18;;;;;;;0.88;0.60;;;;;;;10.10;85.84;100191.22;5043086;28;20053;-83
2021/05/25 01:04:51;;;;;;;1.20;0.57;;;;;;;10.05;86.38;100186.63;5048016;28;20039;-83
2021/05/25 01:07:24;;;;;;;0.77;0.50;;;;;;;10.21;84.79;100193.53;5059086;28;20051;-84
2021/05/25 01:09:58;;;;;;;2.05;0.70;;;;;;;10.03;86.88;100186.13;5049012;28;20490;-83
2021/05/25 01:12:30;;;;;;;1.33;0.60;;;;;;;10.10;85.41;100183.88;5033773;28;20049;-83
2021/05/25 01:18:40;;;;;;;0.50;0.50;;;;;;;9.93;87.24;100197.09;5065741;28;20044;-84
2021/05/25 01:21:14;;;;;;;0.82;0.60;;;;;;;9.82;88.49;100199.13;5050640;28;20060;-84
2021/05/25 01:23:49;;;;;;;1.13;0.60;;;;;;;9.91;87.19;100188.44;5033973;28;20037;-84
2021/05/25 01:26:22;;;;;;;0.60;0.60;;;;;;;9.84;86.34;100183.34;5044447;28;20488;-84
2021/05/25 01:28:50;;;;;;;1.13;0.60;;;;;;;9.78;87.55;100192.66;5039247;28;20048;-83
2021/05/25 01:31:26;;;;;;;0.60;0.60;;;;;;;9.84;86.76;100194.19;5055495;28;20056;-84
2021/05/25 01:33:53;;;;;;;0.60;0.50;;;;;;;9.87;86.24;100180.88;5063018;28;20033;-83
2021/05/25 01:36:21;;;;;;;;;;;;;;;9.88;85.50;100176.22;5065962;28;20060;-84
2021/05/25 01:38:54;;;;;;;1.58;0.50;;;;;;;9.70;85.47;100147.88;5036015;28;19944;-83
2021/05/25 01:41:22;;;;;;;0.63;0.60;;;;;;;9.88;84.85;100177.03;5042891;28;20505;-84
2021/05/25 01:43:55;;;;;;;0.75;0.50;;;;;;;9.76;85.84;100186.66;5043657;28;20413;-83
2021/05/25 01:46:28;;;;;;;2.42;0.60;;;;;;;9.74;86.73;100186.97;5059234;28;20049;-84
2021/05/25 01:49:00;;;;;;;0.55;0.50;;;;;;;9.67;88.10;100189.22;5053413;28;20067;-83
2021/05/25 01:55:46;;;;;;;2.40;0.90;;;;;;;9.70;88.88;100194.06;5045150;28;20579;-84
2021/05/25 01:58:19;;;;;;;;;;;;;;;9.65;88.60;100194.94;5036008;28;20068;-83
2021/05/25 02:00:54;;;;;;;2.10;0.70;;;;;;;9.42;87.73;100138.63;5068079;28;19920;-85
2021/05/25 02:03:28;;;;;;;0.60;0.60;;;;;;;9.70;88.79;100200.28;5064662;28;20043;-84
2021/05/25 02:06:00;;;;;;;0.60;0.52;;;;;;;9.77;88.01;100194.53;5046514;28;20048;-84
2021/05/25 02:08:34;;;;;;;0.73;0.70;;;;;;;9.76;87.99;100192.09;5037623;28;20552;-84
2021/05/25 02:11:08;;;;;;;0.93;0.60;;;;;;;9.75;87.67;100190.47;5066882;28;20412;-84
2021/05/25 02:13:41;;;;;;;0.65;0.65;;;;;;;9.76;87.07;100189.38;5044447;28;20045;-84
2021/05/25 02:16:15;;;;;;;1.65;0.80;;;;;;;9.75;88.72;100201.34;5064853;28;20045;-84
2021/05/25 02:18:49;;;;;;;1.60;0.70;;;;;;;9.79;87.82;100200.50;5063528;28;20048;-84
2021/05/25 02:21:22;;;;;;;0.63;0.63;;;;;;;9.74;88.99;100202.47;5061480;28;20048;-84
2021/05/25 02:23:55;;;;;;;0.60;0.60;;;;;;;9.73;88.81;100198.91;5042702;28;20049;-83
2021/05/25 02:26:28;;;;;;;0.80;0.60;;;;;;;9.78;88.24;100200.81;5053804;28;20052;-84
2021/05/25 02:29:01;;;;;;;1.08;0.80;;;;;;;9.67;88.64;100197.34;5044705;28;20040;-84
2021/05/25 02:31:29;;;;;;;;;;;;;;;9.85;87.55;100204.78;5072027;28;20048;-84
2021/05/25 02:33:57;;;;;;;0.60;0.60;;;;;;;9.85;87.90;100201.25;5032959;28;19921;-84
2021/05/25 02:36:24;;;;;;;;;;;;;;;9.76;88.77;100198.34;5053986;28;20044;-83
2021/05/25 02:38:57;;;;;;;1.27;0.60;;;;;;;9.83;87.61;100185.25;5072779;28;19920;-84
2021/05/25 02:41:31;;;;;;;0.68;0.60;;;;;;;9.61;87.18;100152.31;5069182;28;20051;-83
2021/05/25 02:44:04;;;;;;;1.00;0.68;;;;;;;9.81;88.12;100182.00;5060954;28;20060;-84
2021/05/25 02:46:36;;;;;;;1.52;0.60;;;;;;;9.79;87.32;100184.19;5063185;28;20045;-84
2021/05/25 02:49:09;;;;;;;0.82;0.80;;;;;;;9.77;87.63;100177.44;5057212;28;20051;-83
2021/05/25 02:51:42;;;;;;;0.70;0.70;;;;;;;9.76;87.91;100186.66;5069455;28;20052;-84
2021/05/25 02:54:14;;;;;;;0.63;0.60;;;;;;;9.76;87.19;100186.66;5044562;28;20104;-84
2021/05/25 02:56:43;;;;;;;;;;;;;;;9.77;87.79;100180.16;5031754;28;20080;-84
2021/05/25 03:00:02;;;;;;;1.88;0.70;;;;;;;9.75;87.01;100174.19;5041891;28;19920;-85
2021/05/25 03:02:35;;;;;;;0.95;0.60;;;;;;;9.70;87.68;100172.31;5043154;28;20041;-84
2021/05/25 03:05:11;;;;;;;1.50;0.68;;;;;;;9.60;88.43;100175.94;5054105;28;20060;-83
2021/05/25 03:07:44;;;;;;;0.60;0.60;;;;;;;9.69;88.29;100176.97;5042121;28;20052;-84
2021/05/25 03:10:19;;;;;;;0.68;0.60;;;;;;;9.56;87.82;100153.16;5031626;28;20509;-84
2021/05/25 03:16:25;;;;;;;0.80;0.65;;;;;;;9.57;89.67;100184.69;5045708;28;20061;-84
2021/05/25 03:18:58;;;;;;;0.60;0.60;;;;;;;9.57;88.42;100186.56;5051800;28;20044;-83
2021/05/25 03:21:26;;;;;;;;;;;;;;;9.61;88.65;100187.63;5047809;28;20049;-85
2021/05/25 03:27:43;;;;;;;0.50;0.50;;;;;;;9.44;87.61;100150.00;5045105;28;20041;-84
2021/05/25 03:30:19;;;;;;;0.73;0.57;;;;;;;9.59;87.79;100189.81;5050949;28;20056;-84
2021/05/25 03:33:18;;;;;;;0.85;0.60;;;;;;;9.53;87.87;100184.44;5062912;28;20060;-84
2021/05/25 03:35:51;;;;;;;0.60;0.60;;;;;;;9.38;88.38;100184.56;5071738;28;20054;-84
2021/05/25 03:38:24;;;;;;;0.60;0.60;;;;;;;9.34;88.74;100197.09;5062656;28;20524;-85
2021/05/25 03:40:56;;;;;;;0.88;0.60;;;;;;;9.33;88.63;100203.59;5051125;28;20049;-84
2021/05/25 03:43:29;;;;;;;0.95;0.70;;;;;;;9.22;89.09;100205.56;5034389;28;20057;-84
2021/05/25 03:45:57;;;;;;;;;;;;;;;9.16;88.62;100198.56;5055744;28;20059;-84
2021/05/25 03:49:23;;;;;;;1.17;0.70;;;;;;;9.09;89.17;100189.94;5058665;28;20292;-84
2021/05/25 03:51:57;;;;;;;;;;;;;;;9.06;88.00;100180.44;5057142;28;21491;-84
2021/05/25 03:54:33;;;;;;;1.73;0.88;;;;;;;9.06;87.31;100176.91;5054313;28;19921;-84
2021/05/25 03:57:08;;;;;;;0.73;0.50;;;;;;;9.02;87.95;100187.53;5063656;28;20060;-84
2021/05/25 03:59:40;;;;;;;0.50;0.50;;;;;;;8.99;87.85;100194.34;5072455;28;20052;-84
2021/05/25 04:02:13;;;;;;;1.50;0.70;;;;;;;8.85;88.46;100193.31;5049257;28;20057;-83
2021/05/25 04:04:40;;;;;;;1.75;0.70;;;;;;;9.04;88.19;100198.09;5041156;28;20053;-84
2021/05/25 04:11:05;;;;;;;0.68;0.60;;;;;;;9.17;87.97;100206.44;5034077;28;20057;-84
2021/05/25 04:14:34;;;;;;;1.55;0.60;;;;;;;9.22;88.19;100204.78;5049386;28;20504;-83
2021/05/25 04:17:07;;;;;;;0.70;0.60;;;;;;;9.23;87.98;100201.78;5047843;28;20693;-85
2021/05/25 04:19:54;;;;;;;;;;;;;;;9.36;87.87;100205.75;5059089;28;20052;-85
2021/05/25 04:22:21;;;;;;;0.60;0.50;;;;;;;9.40;86.47;100214.94;5037305;28;19996;-84
2021/05/25 04:24:54;;;;;;;2.08;0.80;;;;;;;9.33;88.16;100204.41;5033163;28;20053;-84
2021/05/25 04:27:23;;;;;;;0.50;0.50;;;;;;;9.39;86.87;100194.34;5034035;28;20502;-85
2021/05/25 04:30:07;;;;;;;0.60;0.60;;;;;;;9.45;87.78;100220.34;5053924;28;20413;-83
2021/05/25 04:32:36;;;;;;;0.85;0.60;;;;;;;9.68;87.83;100226.13;5054622;28;20040;-84
2021/05/25 04:35:10;;;;;;;2.50;0.70;;;;;;;9.69;87.20;100228.59;5035884;28;20414;-85
2021/05/25 04:37:38;;;;;;;1.52;0.50;;;;;;;9.66;86.93;100236.47;5043395;28;20071;-85
2021/05/25 04:40:13;;;;;;;0.70;0.50;;;;;;;9.56;86.98;100212.13;5048168;28;20049;-84
2021/05/25 04:42:46;;;;;;;0.63;0.50;;;;;;;9.62;86.53;100213.69;5034618;28;20151;-85
2021/05/25 04:45:20;;;;;;;0.60;0.60;;;;;;;9.48;86.39;100221.69;5057215;28;20044;-85
2021/05/25 04:47:53;;;;;;;1.20;0.57;;;;;;;9.44;86.34;100228.78;5063241;28;20053;-85
2021/05/25 04:50:26;;;;;;;0.50;0.50;;;;;;;9.38;86.44;100225.28;5057101;28;20139;-84
2021/05/25 04:52:53;;;;;;;0.52;0.52;;;;;;;9.36;87.11;100232.91;5087835;28;20056;-83
2021/05/25 04:55:26;;;;;;;0.65;0.57;;;;;;;9.30;86.97;100234.03;5073220;28;20052;-84
2021/05/25 04:58:00;;;;;;;0.57;0.57;;;;;;;9.24;86.92;100216.97;5063251;28;20677;-84
2021/05/25 05:00:33;;;;;;;1.05;0.63;;;;;;;9.20;87.57;100234.94;5062083;28;20045;-84
2021/05/25 05:03:00;;;;;;;;;;;;;;;9.18;87.31;100235.22;5087010;28;20402;-84
2021/05/25 05:05:33;;;;;;;1.13;0.60;;;;;;;9.11;86.57;100217.59;5059220;28;19921;-84
2021/05/25 05:08:01;;;;;;;0.68;0.50;;;;;;;9.17;86.84;100240.94;5065745;28;20052;-84
2021/05/25 05:10:34;;;;;;;0.63;0.50;;;;;;;9.14;86.52;100246.88;5072697;28;20068;-84
2021/05/25 05:13:08;;;;;;;0.55;0.55;;;;;;;9.12;86.63;100244.47;5073040;28;20053;-86
2021/05/25 05:15:46;;;;;;;0.50;0.47;;;;;;;9.27;86.17;100253.63;5039055;28;20053;-84
2021/05/25 05:18:18;;;;;;;;;;;;;;;9.32;86.93;100256.28;5034532;28;20042;-84
2021/05/25 05:20:51;;;;;;;0.50;0.43;;;;;;;9.39;86.36;100254.09;5049458;28;19925;-84
2021/05/25 05:23:24;;;;;;;0.68;0.40;;;;;;;9.37;86.53;100258.97;5072184;28;20052;-84
2021/05/25 05:25:57;;;;;;;0.52;0.40;;;;;;;9.30;86.65;100262.00;5073974;28;20052;-83
2021/05/25 05:32:00;;;;;;;0.40;0.40;;;;;;;9.14;87.24;100266.72;5032245;28;19919;-83
2021/05/25 05:34:28;;;;;;;0.52;0.43;;;;;;;9.04;87.01;100268.69;5039321;28;20053;-84
2021/05/25 05:36:55;;;;;;;;;;;;;;;9.07;86.21;100270.81;5053829;28;20060;-84
2021/05/25 05:40:19;;;;;;;0.40;0.40;;;;;;;9.01;87.10;100260.00;5072312;28;19943;-83
2021/05/25 05:42:52;;;;;;;0.20;0.20;;;;;;;8.99;85.86;100245.91;5071581;28;20048;-83
2021/05/25 05:45:25;;;;;;;0.52;0.40;;;;;;;8.85;85.71;100229.41;5058461;28;20103;-84
2021/05/25 05:47:54;;;;;;;0.40;0.40;;;;;;;8.99;86.09;100245.91;5066996;28;20049;-84
2021/05/25 05:50:26;;;;;;;0.50;0.40;;;;;;;8.92;85.49;100239.16;5067061;28;20048;-83
2021/05/25 05:52:54;;;;;;;0.43;0.40;;;;;;;9.02;86.59;100255.38;5049673;28;20049;-84
2021/05/25 05:56:32;;;;;;;0.40;0.40;;;;;;;9.08;84.93;100253.47;5048545;28;20057;-84
2021/05/25 05:58:59;;;;;;;0.50;0.50;;;;;;;9.02;86.02;100237.19;5041518;28;20052;-84
2021/05/25 06:01:32;;;;;;;0.47;0.40;;;;;;;9.19;85.40;100247.66;5047990;28;20670;-84
2021/05/25 06:07:39;;;;;;;0.50;0.50;;;;;;;9.24;86.54;100249.56;5050419;28;20044;-83
2021/05/25 06:10:08;;;;;;;0.60;0.60;;;;;;;9.39;84.88;100253.25;5047215;28;20053;-84
2021/05/25 06:12:46;;;;;;;0.73;0.60;;;;;;;9.29;86.34;100259.56;5064253;28;20053;-84
2021/05/25 06:15:19;;;;;;;1.00;0.65;;;;;;;9.27;85.21;100262.56;5050517;28;20052;-84
2021/05/25 06:17:46;;;;;;;;;;;;;;;9.44;85.71;100267.59;5060804;28;20049;-84
2021/05/25 06:20:19;;;;;;;0.85;0.80;;;;;;;9.57;83.60;100262.63;5048317;28;19921;-84
2021/05/25 06:23:07;;;;;;;0.85;0.85;;;;;;;9.59;86.80;100272.13;5042786;28;20060;-83
2021/05/25 06:25:44;;;;;;;0.75;0.75;;;;;;;9.66;83.94;100269.09;5038716;28;20524;-91
2021/05/25 06:28:17;;;;;;;0.80;0.80;;;;;;;9.64;86.43;100273.97;5049890;28;20497;-82
2021/05/25 06:31:48;;;;;;;0.50;0.50;;;;;;;9.45;82.38;100279.31;5053981;28;20053;-83
2021/05/25 06:34:21;;;;;;;0.60;0.60;;;;;;;9.42;85.48;100268.97;5034841;28;20053;-84
2021/05/25 06:36:54;;;;;;;0.70;0.70;;;;;;;9.54;85.68;100277.59;5048587;28;20049;-84
2021/05/25 06:39:25;;;;;;;0.68;0.68;;;;;;;9.45;85.47;100284.72;5047405;28;20075;-86
2021/05/25 06:41:57;;;;;;;1.23;0.80;;;;;;;9.58;85.25;100283.28;5050308;28;21261;-84
2021/05/25 06:44:25;;;;;;;0.85;0.73;;;;;;;9.51;85.95;100265.41;5052015;28;20140;-87
2021/05/25 06:46:59;;;;;;;1.00;0.90;;;;;;;9.36;85.10;100270.91;5054999;28;20472;-85
2021/05/25 06:49:27;;;;;;;1.77;1.00;;;;;;;9.58;86.45;100286.00;5054654;28;20060;-84
2021/05/25 06:52:00;;;;;;;0.80;0.80;;;;;;;9.35;85.58;100291.84;5054280;28;20045;-84
2021/05/25 06:54:32;;;;;;;1.20;1.10;;;;;;;9.83;85.09;100274.09;5058631;28;20065;-83
2021/05/25 06:57:00;;;;;;;0.90;0.85;;;;;;;10.16;84.17;100283.34;5055824;28;20041;-84
2021/05/25 06:59:36;;;;;;;0.90;0.90;;;;;;;10.68;83.26;100270.00;5056449;28;20055;-84
2021/05/25 07:02:54;;;;;;;0.68;0.60;;;;;;;10.62;79.37;100270.34;5055937;28;20055;-84
2021/05/25 07:05:22;;;;;;;0.70;0.70;;;;;;;10.68;81.06;100278.19;5058126;28;20053;-84
2021/05/25 07:08:23;;;;;;;0.70;0.70;;;;;;;10.75;82.09;100285.19;5057077;28;20057;-85
2021/05/25 07:10:58;;;;;;;0.68;0.68;;;;;;;10.82;81.42;100289.16;5059757;28;21378;-86
2021/05/25 07:13:33;;;;;;;0.60;0.60;;;;;;;10.49;79.08;100285.47;5052638;28;20064;-86
2021/05/25 07:16:01;;;;;;;0.65;0.50;;;;;;;10.59;81.43;100288.06;5053596;28;20056;-86
2021/05/25 07:18:30;;;;;;;;;;;;;;;10.30;77.94;100296.25;5051394;28;20056;-92
2021/05/25 07:20:59;;;;;;;0.50;0.50;;;;;;;10.11;80.36;100296.16;5054106;28;19928;-86
2021/05/25 07:23:32;;;;;;;0.40;0.40;;;;;;;10.10;79.43;100297.28;5052081;28;20055;-85
2021/05/25 07:26:06;;;;;;;0.50;0.50;;;;;;;10.07;81.75;100300.53;5052652;28;20078;-86
2021/05/25 07:28:39;;;;;;;0.77;0.60;;;;;;;10.57;79.67;100301.16;5051790;28;20052;-86
2021/05/25 07:31:18;;;;;;;0.50;0.50;;;;;;;10.65;80.59;100286.94;5050045;28;20067;-85
2021/05/25 07:33:51;;;;;;;0.50;0.50;;;;;;;10.72;77.87;100292.03;5051144;28;20053;-86
2021/05/25 07:36:54;;;;;;;0.50;0.50;;;;;;;10.55;79.42;100287.06;5055571;28;20048;-85
2021/05/25 07:39:28;;;;;;;1.05;0.95;;;;;;;11.02;79.43;100281.84;5053846;28;20059;-85
2021/05/25 07:42:02;;;;;;;0.60;0.50;;;;;;;10.98;79.05;100246.25;5052917;28;20060;-86
2021/05/25 07:44:35;;;;;;;0.40;0.40;;;;;;;11.30;78.04;100291.00;5054608;28;20063;-86
2021/05/25 07:47:07;;;;;;;0.70;0.50;;;;;;;11.63;76.67;100292.97;5052978;28;20049;-88
2021/05/25 07:49:35;;;;;;;;;;;;;;;11.18;72.92;100298.81;5055936;28;20056;-86
2021/05/25 07:52:03;;;;;;;;;;;;;;;10.93;77.44;100306.19;5053532;28;19926;-87
2021/05/25 07:54:35;;;;;;;0.30;0.30;;;;;;;10.50;75.96;100309.69;5056012;28;19943;-85
2021/05/25 07:57:14;;;;;;;0.40;0.40;;;;;;;10.53;76.49;100314.53;5051442;28;20052;-86
2021/05/25 07:59:51;;;;;;;0.30;0.30;;;;;;;10.37;76.83;100316.63;5052635;28;20962;-86
2021/05/25 08:02:50;;;;;;;0.30;0.30;;;;;;;10.20;75.58;100327.06;5056077;28;20048;-86
2021/05/25 08:05:18;;;;;;;0.47;0.38;;;;;;;10.20;78.52;100324.34;5059811;28;20489;-86
2021/05/25 08:07:52;;;;;;;0.20;0.20;;;;;;;9.96;75.21;100303.34;5051505;28;20053;-86
2021/05/25 08:10:27;;;;;;;0.65;0.40;;;;;;;10.11;78.52;100307.84;5052238;28;20405;-87
2021/05/25 08:12:56;;;;;;;0.30;0.30;;;;;;;10.25;77.93;100312.59;5051485;28;20067;-85
2021/05/25 08:15:30;;;;;;;0.30;0.30;;;;;;;10.80;77.06;100312.34;5054476;28;20061;-85
2021/05/25 08:18:17;;;;;;;0.45;0.30;;;;;;;10.85;76.85;100318.56;5050501;28;21695;-87
2021/05/25 08:20:55;;;;;;;0.20;0.20;;;;;;;11.36;73.47;100322.50;5051420;28;20057;-86
2021/05/25 08:23:46;;;;;;;0.30;0.30;;;;;;;11.10;72.63;100313.88;5051812;28;20041;-84
2021/05/25 08:26:24;;;;;;;0.20;0.20;;;;;;;10.65;74.23;100262.44;5053599;28;20060;-86
2021/05/25 08:28:57;;;;;;;0.40;0.30;;;;;;;11.36;75.57;100313.53;5053128;28;20048;-85
2021/05/25 08:31:30;;;;;;;0.30;0.30;;;;;;;11.71;75.73;100306.75;5051529;28;20424;-87
2021/05/25 08:34:03;;;;;;;0.30;0.30;;;;;;;11.78;72.46;100305.56;5049491;28;20535;-87
2021/05/25 08:36:38;;;;;;;0.30;0.30;;;;;;;11.80;71.30;100300.63;5053305;28;20048;-87
2021/05/25 08:39:11;;;;;;;0.50;0.30;;;;;;;11.68;74.66;100306.53;5052896;28;20071;-84
2021/05/25 08:42:13;;;;;;;0.20;0.20;;;;;;;11.17;71.00;100318.97;5050764;28;20053;-86
2021/05/25 08:44:46;;;;;;;0.30;0.30;;;;;;;11.20;73.57;100305.56;5049849;28;20052;-85
2021/05/25 08:47:14;;;;;;;0.40;0.30;;;;;;;11.38;74.58;100319.50;5050550;28;20053;-87
2021/05/25 08:49:52;;;;;;;0.30;0.30;;;;;;;11.42;70.31;100315.09;5052683;28;21316;-86
2021/05/25 08:52:26;;;;;;;0.30;0.30;;;;;;;11.41;69.76;100329.81;5052736;28;20048;-85
2021/05/25 08:55:08;;;;;;;0.22;0.22;;;;;;;11.51;72.82;100326.13;5053586;28;20052;-84
2021/05/25 08:57:43;;;;;;;0.63;0.30;;;;;;;11.26;73.64;100302.78;5053239;28;21041;-84
2021/05/25 09:00:17;;;;;;;0.28;0.28;;;;;;;11.50;68.46;100308.16;5054124;28;20064;-85
2021/05/25 09:02:50;;;;;;;0.40;0.40;;;;;;;11.73;71.24;100322.81;5051874;28;20060;-85
2021/05/25 09:05:19;;;;;;;;;;;;;;;11.70;71.63;100328.84;5052409;28;20088;-84
2021/05/25 09:07:53;;;;;;;0.40;0.40;;;;;;;11.55;72.16;100327.97;5052191;28;20261;-85
2021/05/25 09:10:37;;;;;;;0.68;0.40;;;;;;;11.81;70.36;100327.59;5052150;28;20049;-84
2021/05/25 09:13:12;;;;;;;0.28;0.28;;;;;;;11.58;69.61;100316.47;5052406;28;20045;-84
2021/05/25 09:15:44;;;;;;;0.30;0.30;;;;;;;11.49;67.46;100345.50;5056480;28;20047;-85
2021/05/25 09:18:18;;;;;;;0.30;0.30;;;;;;;11.39;67.51;100353.81;5053513;28;20048;-84
2021/05/25 09:20:55;;;;;;;0.40;0.40;;;;;;;10.86;70.74;100354.75;5049761;28;20056;-86
2021/05/25 09:23:43;;;;;;;0.20;0.20;;;;;;;9.98;70.45;100357.44;5067177;28;20488;-85
2021/05/25 09:26:27;;;;;;;0.30;0.30;;;;;;;9.82;76.39;100373.06;5047137;28;20551;-85
2021/05/25 09:29:02;;;;;;;0.20;0.20;;;;;;;9.45;76.90;100375.16;5050367;28;20059;-85
2021/05/25 09:31:41;;;;;;;0.30;0.30;;;;;;;9.39;78.91;100370.88;5067249;28;20052;-86
2021/05/25 09:34:21;;;;;;;0.30;0.30;;;;;;;9.74;79.61;100360.06;5050863;28;20071;-85
2021/05/25 09:37:00;;;;;;;0.20;0.20;;;;;;;9.85;78.58;100353.47;5069447;28;20056;-85
2021/05/25 09:39:49;;;;;;;0.30;0.25;;;;;;;10.42;79.41;100345.66;5052587;28;20547;-85
2021/05/25 09:42:30;;;;;;;0.30;0.30;;;;;;;10.19;76.28;100349.91;5049399;28;20056;-86
2021/05/25 09:44:59;;;;;;;0.43;0.40;;;;;;;10.93;79.28;100357.13;5052506;28;20048;-85
2021/05/25 09:47:40;;;;;;;0.32;0.32;;;;;;;11.17;73.58;100357.09;5054434;28;20049;-84
2021/05/25 09:50:13;;;;;;;0.40;0.40;;;;;;;11.65;77.63;100342.56;5054335;28;20061;-86
2021/05/25 09:53:17;;;;;;;0.30;0.30;;;;;;;11.69;74.68;100340.84;5050655;28;20518;-87
2021/05/25 09:55:55;;;;;;;0.73;0.40;;;;;;;11.70;76.40;100337.84;5050657;28;20149;-86
2021/05/25 09:58:38;;;;;;;0.40;0.40;;;;;;;11.51;72.69;100337.84;5053446;28;20059;-85
2021/05/25 10:01:12;;;;;;;0.30;0.30;;;;;;;11.36;70.84;100338.06;5049987;28;20053;-86
2021/05/25 10:03:56;;;;;;;0.60;0.40;;;;;;;11.28;72.08;100336.78;5063628;28;20044;-85
2021/05/25 10:06:33;;;;;;;0.47;0.40;;;;;;;11.10;71.33;100332.94;5049062;28;20044;-87
2021/05/25 10:09:01;;;;;;;0.98;0.30;;;;;;;10.83;71.85;100331.63;5050034;28;20132;-85
2021/05/25 10:11:42;;;;;;;0.50;0.40;;;;;;;11.08;73.66;100337.88;5053462;28;20427;-87
2021/05/25 10:14:26;;;;;;;0.40;0.40;;;;;;;11.67;74.92;100334.88;5051144;28;20064;-85
2021/05/25 10:17:42;;;;;;;0.35;0.30;;;;;;;12.24;72.49;100319.25;5050661;28;20055;-86
2021/05/25 10:20:17;;;;;;;1.08;0.40;;;;;;;12.23;71.81;100317.63;5048202;28;20053;-85
2021/05/25 10:23:14;;;;;;;0.32;0.32;;;;;;;11.88;72.82;100325.28;5049132;28;20037;-86
2021/05/25 10:25:52;;;;;;;0.73;0.38;;;;;;;11.50;70.64;100332.69;5051193;28;20512;-85
2021/05/25 10:28:21;;;;;;;0.30;0.30;;;;;;;11.10;73.08;100323.97;5050362;28;20064;-84
2021/05/25 10:30:57;;;;;;;0.30;0.30;;;;;;;11.34;69.04;100327.44;5053308;28;20477;-86
2021/05/25 10:34:16;;;;;;;0.30;0.30;;;;;;;11.61;71.42;100325.16;5050751;28;20056;-84
2021/05/25 10:36:53;;;;;;;0.30;0.30;;;;;;;11.21;68.24;100301.75;5052893;28;20065;-85
2021/05/25 10:39:35;;;;;;;0.45;0.35;;;;;;;12.21;71.18;100324.53;5050363;28;20042;-84
2021/05/25 10:42:22;;;;;;;;;;;;;;;12.65;65.58;100319.63;5052797;28;20052;-87
2021/05/25 10:44:51;;;;;;;0.40;0.40;;;;;;;12.50;66.94;100323.47;5052936;28;19928;-84
2021/05/25 10:47:33;;;;;;;0.40;0.38;;;;;;;12.62;68.39;100314.75;5051229;28;20052;-86
2021/05/25 10:50:16;;;;;;;0.40;0.40;;;;;;;12.79;63.02;100314.97;5051763;28;20525;-86
2021/05/25 10:53:22;;;;;;;0.40;0.40;;;;;;;13.36;62.64;100314.63;5053091;28;20075;-85
2021/05/25 10:55:56;;;;;;;1.17;0.40;;;;;;;13.64;63.42;100302.81;5050801;28;20064;-87
2021/05/25 10:58:30;;;;;;;0.45;0.40;;;;;;;14.08;62.07;100303.91;5052750;28;20063;-85
2021/05/25 11:01:06;;;;;;;0.57;0.30;;;;;;;14.07;60.17;100308.59;5052861;28;20060;-86
2021/05/25 11:03:45;;;;;;;0.30;0.30;;;;;;;13.84;60.11;100298.78;5054549;28;20068;-85
2021/05/25 11:06:29;;;;;;;0.22;0.20;;;;;;;13.39;60.20;100314.00;5054625;28;20552;-86
2021/05/25 11:09:21;;;;;;;0.32;0.30;;;;;;;12.92;61.97;100300.50;5052100;28;20091;-84
2021/05/25 11:12:46;;;;;;;0.20;0.20;;;;;;;12.83;64.84;100296.06;5049486;28;20837;-85
2021/05/25 11:15:20;;;;;;;0.25;0.25;;;;;;;12.69;61.46;100312.44;5054446;28;20048;-85
2021/05/25 11:17:58;;;;;;;0.30;0.30;;;;;;;12.44;62.21;100313.75;5054201;28;20069;-85
2021/05/25 11:20:52;;;;;;;0.30;0.30;;;;;;;12.40;63.08;100311.63;5050766;28;20071;-84
2021/05/25 11:23:41;;;;;;;0.20;0.20;;;;;;;13.34;63.11;100307.81;5053109;28;20075;-85
2021/05/25 11:26:49;;;;;;;4.68;0.30;;;;;;;13.08;62.61;100305.66;5056528;28;20381;-85
2021/05/25 11:29:19;;;;;;;0.30;0.30;;;;;;;13.13;62.50;100308.25;5052849;28;20056;-86
2021/05/25 11:31:47;;;;;;;0.55;0.40;;;;;;;13.32;61.44;100286.25;5053645;28;20048;-86
2021/05/25 11:38:00;;;;;;;0.30;0.25;;;;;;;12.39;63.56;100306.47;5058551;28;20044;-86
2021/05/25 11:40:35;;;;;;;0.40;0.30;;;;;;;12.35;65.05;100311.72;5059731;28;20647;-84
2021/05/25 11:43:04;;;;;;;0.30;0.30;;;;;;;12.34;63.09;100298.38;5057601;28;20053;-85
2021/05/25 11:45:40;;;;;;;0.30;0.30;;;;;;;12.47;60.81;100311.22;5057723;28;20052;-86
2021/05/25 11:48:08;;;;;;;0.32;0.32;;;;;;;12.41;63.38;100317.88;5059136;28;20060;-85
2021/05/25 11:51:10;;;;;;;0.85;0.43;;;;;;;12.26;60.58;100318.97;5052312;28;20083;-90
2021/05/25 11:53:45;;;;;;;0.55;0.35;;;;;;;12.03;62.67;100327.00;5055386;28;20065;-87
2021/05/25 11:56:13;;;;;;;0.20;0.20;;;;;;;11.96;61.99;100321.13;5054643;28;21368;-87
2021/05/25 11:58:55;;;;;;;0.52;0.40;;;;;;;12.99;59.91;100319.22;5053438;28;20511;-86
2021/05/25 12:01:55;;;;;;;0.85;0.30;;;;;;;13.13;61.69;100316.47;5056683;28;20267;-86
2021/05/25 12:04:30;;;;;;;0.80;0.30;;;;;;;13.68;57.34;100310.06;5055957;28;20052;-86
2021/05/25 12:07:03;;;;;;;0.40;0.30;;;;;;;13.66;57.35;100312.31;5053474;28;20066;-87
2021/05/25 12:09:36;;;;;;;0.75;0.30;;;;;;;13.60;56.27;100280.72;5056336;28;20726;-86
2021/05/25 12:13:02;;;;;;;0.20;0.20;;;;;;;13.95;56.83;100311.88;5051905;28;20050;-86
2021/05/25 12:15:40;;;;;;;0.30;0.30;;;;;;;13.31;51.07;100251.03;5062063;28;20063;-87
2021/05/25 12:18:24;;;;;;;0.20;0.20;;;;;;;13.77;54.83;100319.16;5055453;28;20060;-85
2021/05/25 12:21:24;;;;;;;0.30;0.30;;;;;;;13.95;55.99;100313.81;5054020;28;20076;-87
2021/05/25 12:23:57;;;;;;;0.30;0.30;;;;;;;13.88;56.09;100311.50;5052097;28;20045;-84
2021/05/25 12:26:30;;;;;;;1.00;0.40;;;;;;;13.89;49.85;100301.38;5047974;28;20508;-85
2021/05/25 12:29:03;;;;;;;0.30;0.30;;;;;;;13.70;54.67;100309.75;5054764;28;20052;-86
2021/05/25 12:31:36;;;;;;;0.20;0.20;;;;;;;13.52;60.27;100320.56;5052275;28;20061;-85
2021/05/25 12:34:16;;;;;;;0.30;0.30;;;;;;;13.44;59.63;100305.69;5052364;28;21707;-87
2021/05/25 12:36:53;;;;;;;0.40;0.20;;;;;;;13.52;54.93;100314.28;5057075;28;20049;-87
2021/05/25 12:39:37;;;;;;;0.30;0.30;;;;;;;13.44;53.88;100302.16;5054134;28;20490;-86
2021/05/25 12:42:13;;;;;;;0.22;0.22;;;;;;;13.38;59.21;100263.22;5052964;28;20053;-85
2021/05/25 12:45:04;;;;;;;0.20;0.20;;;;;;;14.00;54.68;100307.41;5054439;28;20512;-86
2021/05/25 12:47:51;;;;;;;0.38;0.28;;;;;;;14.53;57.27;100303.00;5054886;28;20049;-86
2021/05/25 12:50:31;;;;;;;0.30;0.30;;;;;;;14.62;58.31;100288.28;5050306;28;20052;-85
2021/05/25 12:53:05;;;;;;;0.20;0.20;;;;;;;14.06;55.50;100271.41;5053522;28;20048;-85
2021/05/25 12:55:41;;;;;;;0.30;0.30;;;;;;;13.69;57.05;100284.34;5053454;28;20060;-85
2021/05/25 12:58:09;;;;;;;0.20;0.20;;;;;;;13.51;57.81;100305.28;5053451;28;20063;-85
2021/05/25 13:00:43;;;;;;;0.20;0.20;;;;;;;13.45;61.37;100298.31;5052843;28;20052;-84
2021/05/25 13:03:23;;;;;;;0.30;0.30;;;;;;;14.06;58.06;100292.50;5052399;28;20083;-86
2021/05/25 13:06:10;;;;;;;0.30;0.30;;;;;;;13.78;58.83;100273.47;5053590;28;20048;-84
2021/05/25 13:08:47;;;;;;;;;;;;;;;13.99;58.12;100305.78;5055579;28;20052;-85
2021/05/25 13:11:22;;;;;;;0.30;0.30;;;;;;;13.78;57.56;100296.16;5054913;28;19936;-86